Terminal Aerodrome Forecast
Issued by NWS

Current Version | Previous Version | Text Only | Print | Product List | Glossary On
Versions: 1 2 3 4 5 6 7 8 9 10 11 12 13 14 15 16 17 18 19 20 21 22 23 24
000
FTUS43 KLOT 201501 AAA
TAFMDW
TAF AMD
KMDW 201501Z 2015/2118 23008KT P6SM BKN250
     FM210000 21006KT P6SM OVC012
     FM210400 20005KT 4SM BR OVC007
     FM210900 16004KT 2SM -DZ BR OVC004=

USA.gov is the U.S. government's official web portal to all federal, state and local government web resources and services.